Time;durP1;ratioP1;P1;durP2;ratioP2;P2;SDS_P1;SDS_P2;PMS_P1;PMS_P2;Temp;Humidity;BMP_temperature;BMP_pressure;BME280_temperature;BME280_humidity;BME280_pressure;Samples;Min_cycle;Max_cycle;Signal;HPM_P1;HPM_P2
2022/12/08 00:00:47;;;;;;;5.18;1.42;;;2.70;99.90;;;;;;5111584;28;20024;-87
2022/12/08 00:03:12;;;;;;;5.05;1.25;;;2.70;99.90;;;;;;5105208;28;20043;-88
2022/12/08 00:11:31;;;;;;;4.57;1.15;;;2.70;99.90;;;;;;5037063;28;20484;-88
2022/12/08 00:13:57;;;;;;;3.40;1.17;;;2.70;99.90;;;;;;5047693;28;20165;-88
2022/12/08 00:16:22;;;;;;;7.72;1.75;;;2.70;99.90;;;;;;5089488;28;20040;-88
2022/12/08 00:18:48;;;;;;;4.88;1.38;;;2.70;99.90;;;;;;5093356;28;20034;-88
2022/12/08 00:21:13;;;;;;;3.50;1.23;;;2.80;99.90;;;;;;5109225;28;20102;-89
2022/12/08 00:23:39;;;;;;;5.05;1.30;;;2.80;99.90;;;;;;5092628;28;20412;-88
2022/12/08 00:26:05;;;;;;;2.80;1.00;;;2.80;99.90;;;;;;5093344;28;20066;-89
2022/12/08 00:28:32;;;;;;;4.28;1.20;;;2.80;99.90;;;;;;5091879;28;20606;-88
2022/12/08 00:30:57;;;;;;;4.32;1.10;;;2.80;99.90;;;;;;5093596;28;20036;-89
2022/12/08 00:33:23;;;;;;;2.63;1.00;;;2.70;99.90;;;;;;5092135;28;20031;-88
2022/12/08 00:35:49;;;;;;;5.25;1.92;;;2.70;99.90;;;;;;5108720;28;20450;-88
2022/12/08 00:38:14;;;;;;;5.55;1.50;;;2.70;99.90;;;;;;5109092;28;20088;-88
2022/12/08 00:40:46;;;;;;;5.95;1.42;;;2.70;99.90;;;;;;5109772;28;20043;-88
2022/12/08 00:43:13;;;;;;;3.95;1.15;;;2.60;99.90;;;;;;5109287;28;20452;-89
2022/12/08 00:45:39;;;;;;;9.75;1.35;;;2.60;99.90;;;;;;5089078;28;20111;-89
2022/12/08 00:48:05;;;;;;;5.75;1.70;;;2.50;99.90;;;;;;5089583;28;20181;-88
2022/12/08 00:50:31;;;;;;;4.57;1.52;;;2.50;99.90;;;;;;5073324;28;20067;-89
2022/12/08 00:52:56;;;;;;;5.35;2.17;;;2.50;99.90;;;;;;5088124;28;20481;-89
2022/12/08 00:55:22;;;;;;;4.72;1.58;;;2.50;99.90;;;;;;5092217;28;20044;-89
2022/12/08 00:57:48;;;;;;;7.45;1.80;;;2.40;99.90;;;;;;5092974;28;20044;-89
2022/12/08 01:00:14;;;;;;;3.72;1.35;;;2.40;99.90;;;;;;5082852;28;20035;-89
2022/12/08 01:02:40;;;;;;;6.35;1.40;;;2.40;99.90;;;;;;5109194;28;20040;-89
2022/12/08 01:05:06;;;;;;;5.38;1.42;;;2.40;99.90;;;;;;5081450;28;20406;-89
2022/12/08 01:07:31;;;;;;;4.30;1.40;;;2.40;99.90;;;;;;5072374;28;20036;-88
2022/12/08 01:09:57;;;;;;;5.43;1.20;;;2.30;99.90;;;;;;5094642;28;20039;-88
2022/12/08 01:12:23;;;;;;;6.88;1.67;;;2.30;99.90;;;;;;5092421;28;20544;-89
2022/12/08 01:14:49;;;;;;;8.55;2.10;;;2.30;99.90;;;;;;5092192;28;20131;-89
2022/12/08 01:17:15;;;;;;;7.25;1.67;;;2.20;99.90;;;;;;5087307;28;20111;-89
2022/12/08 01:19:40;;;;;;;5.35;1.67;;;2.20;99.90;;;;;;5072442;28;20044;-89
2022/12/08 01:22:06;;;;;;;5.75;1.85;;;2.20;99.90;;;;;;5088824;28;20042;-89
2022/12/08 01:24:31;;;;;;;7.15;2.75;;;2.20;99.90;;;;;;5087030;28;20501;-89
2022/12/08 01:26:57;;;;;;;6.55;1.92;;;2.20;99.90;;;;;;5092646;28;20040;-89
2022/12/08 01:29:23;;;;;;;7.80;2.35;;;2.10;99.90;;;;;;5112837;28;20032;-88
2022/12/08 01:31:48;;;;;;;5.05;1.77;;;2.10;99.90;;;;;;5097019;28;20039;-89
2022/12/08 01:34:14;;;;;;;7.53;1.75;;;2.10;99.90;;;;;;5095714;28;20039;-89
2022/12/08 01:36:41;;;;;;;11.55;2.08;;;2.10;99.90;;;;;;5098467;28;20058;-88
2022/12/08 01:39:12;;;;;;;6.07;2.65;;;2.10;99.90;;;;;;5092703;28;20081;-88
2022/12/08 01:41:38;;;;;;;11.93;2.30;;;2.10;99.90;;;;;;5096008;28;20454;-88
2022/12/08 01:44:10;;;;;;;6.18;2.55;;;2.20;99.90;;;;;;5095464;28;20119;-88
2022/12/08 01:46:41;;;;;;;7.45;2.63;;;2.20;99.90;;;;;;5096534;28;20066;-88
2022/12/08 01:49:16;;;;;;;5.50;2.25;;;2.20;99.90;;;;;;5094662;28;20031;-88
2022/12/08 01:52:13;;;;;;;10.05;2.58;;;2.20;99.90;;;;;;5096421;28;20055;-88
2022/12/08 01:54:47;;;;;;;7.22;2.60;;;2.20;99.90;;;;;;5111930;28;20051;-88
2022/12/08 01:57:22;;;;;;;6.20;2.00;;;2.20;99.90;;;;;;5112435;28;20044;-89
2022/12/08 01:59:54;;;;;;;7.03;2.03;;;2.20;99.90;;;;;;5112216;28;20137;-89
2022/12/08 02:02:20;;;;;;;7.50;2.75;;;2.30;99.90;;;;;;5094440;28;20678;-88
2022/12/08 02:04:45;;;;;;;7.63;1.85;;;2.30;99.90;;;;;;5094944;28;20043;-89
2022/12/08 02:07:12;;;;;;;6.57;2.75;;;2.30;99.90;;;;;;5095319;28;20042;-88
2022/12/08 02:09:39;;;;;;;8.88;3.00;;;2.30;99.90;;;;;;5112286;28;20035;-89
2022/12/08 02:12:05;;;;;;;11.60;3.17;;;2.40;99.90;;;;;;5085844;28;20035;-88
2022/12/08 02:14:32;;;;;;;7.63;2.95;;;2.40;99.90;;;;;;5111924;28;20083;-89
2022/12/08 02:17:18;;;;;;;7.03;2.50;;;2.50;99.90;;;;;;5111401;28;20039;-88
2022/12/08 02:20:17;;;;;;;7.88;2.90;;;2.50;99.90;;;;;;5077387;28;20044;-89
2022/12/08 02:23:19;;;;;;;9.68;3.05;;;2.50;99.90;;;;;;5094340;28;20075;-88
2022/12/08 02:26:05;;;;;;;6.93;2.55;;;2.50;99.90;;;;;;5108785;28;20462;-89
2022/12/08 02:28:49;;;;;;;10.40;3.13;;;2.50;99.90;;;;;;5095014;28;20042;-89
2022/12/08 02:31:35;;;;;;;9.50;3.20;;;2.50;99.90;;;;;;5094230;28;20043;-89
2022/12/08 02:34:26;;;;;;;9.15;2.45;;;2.60;99.90;;;;;;5111647;28;20040;-88
2022/12/08 02:37:15;;;;;;;7.65;3.05;;;2.60;99.90;;;;;;5098614;28;20050;-89
2022/12/08 02:39:48;;;;;;;9.05;3.20;;;2.60;99.90;;;;;;5091693;28;20082;-89
2022/12/08 02:42:26;;;;;;;7.82;3.08;;;2.70;99.90;;;;;;5083117;28;20501;-88
2022/12/08 02:45:13;;;;;;;9.00;2.97;;;2.70;99.90;;;;;;5094992;28;20035;-89
2022/12/08 02:47:39;;;;;;;8.98;3.30;;;2.80;99.90;;;;;;5111122;28;20024;-89
2022/12/08 02:50:06;;;;;;;11.05;3.30;;;2.80;99.90;;;;;;5094275;28;20043;-89
2022/12/08 02:52:31;;;;;;;7.55;2.83;;;2.80;99.90;;;;;;5094743;28;20043;-89
2022/12/08 02:55:05;;;;;;;9.65;2.63;;;2.80;99.90;;;;;;5110741;28;20127;-89
2022/12/08 02:58:01;;;;;;;10.55;3.22;;;2.90;99.90;;;;;;5112156;28;20076;-89
2022/12/08 03:00:33;;;;;;;9.02;3.10;;;2.90;99.90;;;;;;5093868;28;20401;-89
2022/12/08 03:03:18;;;;;;;7.85;2.75;;;3.00;99.90;;;;;;5094175;28;20097;-89
2022/12/08 03:06:12;;;;;;;7.13;2.80;;;3.00;99.90;;;;;;5093807;28;20519;-89
2022/12/08 03:08:43;;;;;;;8.60;2.67;;;3.00;99.90;;;;;;5096886;28;20498;-89
2022/12/08 03:11:27;;;;;;;7.97;3.15;;;3.10;99.90;;;;;;5111343;28;20043;-89
2022/12/08 03:13:58;;;;;;;8.98;2.70;;;3.10;99.90;;;;;;5110414;28;20036;-89
2022/12/08 03:16:26;;;;;;;9.15;2.97;;;3.10;99.90;;;;;;5110644;28;20531;-89
2022/12/08 03:19:21;;;;;;;10.10;2.92;;;3.10;99.90;;;;;;5110636;28;20039;-89
2022/12/08 03:21:50;;;;;;;7.40;2.65;;;3.20;99.90;;;;;;5090607;28;20047;-89
2022/12/08 03:24:18;;;;;;;7.18;2.75;;;3.20;99.90;;;;;;5110841;28;20118;-89
2022/12/08 03:26:57;;;;;;;8.90;3.08;;;3.20;99.90;;;;;;5109102;28;20031;-89
2022/12/08 03:29:23;;;;;;;9.50;3.15;;;3.20;99.90;;;;;;5090502;28;20086;-89
2022/12/08 03:31:53;;;;;;;8.10;3.72;;;3.20;99.90;;;;;;5098727;28;20037;-89
2022/12/08 03:34:20;;;;;;;6.43;2.63;;;3.30;99.90;;;;;;5110291;28;20059;-89
2022/12/08 03:36:45;;;;;;;7.75;2.53;;;3.30;99.90;;;;;;5110414;28;20032;-89
2022/12/08 03:39:11;;;;;;;8.00;2.92;;;3.30;99.90;;;;;;5110158;28;20031;-89
2022/12/08 03:41:37;;;;;;;7.88;3.13;;;3.40;99.90;;;;;;5094336;28;20445;-89
2022/12/08 03:44:02;;;;;;;8.88;3.17;;;3.40;99.90;;;;;;5092953;28;20078;-89
2022/12/08 03:46:30;;;;;;;10.60;3.05;;;3.30;99.90;;;;;;5110828;28;20039;-89
2022/12/08 03:48:55;;;;;;;8.23;3.38;;;3.40;99.90;;;;;;5110516;28;20080;-89
2022/12/08 03:51:22;;;;;;;8.57;2.75;;;3.40;99.90;;;;;;5109131;28;20544;-88
2022/12/08 03:53:49;;;;;;;12.50;3.33;;;3.40;99.90;;;;;;5110516;28;20035;-89
2022/12/08 03:56:33;;;;;;;9.43;3.83;;;3.40;99.90;;;;;;5092822;28;20500;-89
2022/12/08 03:58:59;;;;;;;8.55;2.90;;;3.40;99.90;;;;;;5092856;28;20061;-89
2022/12/08 04:01:26;;;;;;;8.55;3.65;;;3.40;99.90;;;;;;5093619;28;20036;-89
2022/12/08 04:03:52;;;;;;;6.20;2.63;;;3.40;99.90;;;;;;5109148;28;20043;-89
2022/12/08 04:06:18;;;;;;;7.85;3.10;;;3.40;99.90;;;;;;5110527;28;20043;-89
2022/12/08 04:08:44;;;;;;;8.27;3.20;;;3.40;99.90;;;;;;5093482;28;20123;-88
2022/12/08 04:11:10;;;;;;;7.13;2.97;;;3.40;99.90;;;;;;5079338;28;20077;-89
2022/12/08 04:13:37;;;;;;;7.65;2.60;;;3.40;99.90;;;;;;5089658;28;20040;-89
2022/12/08 04:16:04;;;;;;;6.78;3.38;;;3.40;99.90;;;;;;5093377;28;20431;-89
2022/12/08 04:18:30;;;;;;;8.43;3.33;;;3.40;99.90;;;;;;5076597;28;20050;-89
2022/12/08 04:20:56;;;;;;;8.65;3.45;;;3.50;99.90;;;;;;5089965;28;20531;-89
2022/12/08 04:23:21;;;;;;;17.63;3.53;;;3.50;99.90;;;;;;5095840;28;20039;-89
2022/12/08 04:25:47;;;;;;;8.43;3.50;;;3.50;99.90;;;;;;5092810;28;20067;-88
2022/12/08 04:28:13;;;;;;;7.60;3.00;;;3.50;99.90;;;;;;5093472;28;20065;-89
2022/12/08 04:30:39;;;;;;;12.57;3.38;;;3.50;99.90;;;;;;5108892;28;20038;-89
2022/12/08 04:33:04;;;;;;;9.30;3.03;;;3.50;99.90;;;;;;5109882;28;20067;-89
2022/12/08 04:35:30;;;;;;;9.35;3.47;;;3.50;99.90;;;;;;5108850;28;20043;-89
2022/12/08 04:37:56;;;;;;;9.02;3.75;;;3.50;99.90;;;;;;5073162;28;20036;-89
2022/12/08 04:40:22;;;;;;;7.30;3.08;;;3.60;99.90;;;;;;5089762;28;20105;-89
2022/12/08 04:42:47;;;;;;;10.00;3.65;;;3.60;99.90;;;;;;5108644;28;20079;-89
2022/12/08 04:45:13;;;;;;;9.55;3.10;;;3.60;99.90;;;;;;5092702;28;20042;-88
2022/12/08 04:47:39;;;;;;;7.78;3.03;;;3.60;99.90;;;;;;5110197;28;20040;-88
2022/12/08 04:50:05;;;;;;;8.60;3.20;;;3.60;99.90;;;;;;5091606;28;20413;-88
2022/12/08 04:52:31;;;;;;;10.38;3.67;;;3.60;99.90;;;;;;5106375;28;20035;-89
2022/12/08 04:54:57;;;;;;;10.85;2.88;;;3.60;99.90;;;;;;5111910;28;20161;-89
2022/12/08 04:57:22;;;;;;;8.70;3.42;;;3.60;99.90;;;;;;5109400;28;20043;-88
2022/12/08 04:59:48;;;;;;;7.18;3.03;;;3.60;99.90;;;;;;5094327;28;20046;-89
2022/12/08 05:02:13;;;;;;;8.15;3.05;;;3.70;99.90;;;;;;5109416;28;20513;-89
2022/12/08 05:04:39;;;;;;;4.63;2.08;;;3.60;99.90;;;;;;5097315;28;20047;-89
2022/12/08 05:07:05;;;;;;;6.57;2.72;;;3.60;99.90;;;;;;5095733;28;20047;-89
2022/12/08 05:09:30;;;;;;;9.80;3.10;;;3.60;99.90;;;;;;5113494;28;20588;-89
2022/12/08 05:11:56;;;;;;;7.43;2.92;;;3.70;99.90;;;;;;5113795;28;20474;-89
2022/12/08 05:14:21;;;;;;;6.95;2.83;;;3.70;99.90;;;;;;5112970;28;20052;-89
2022/12/08 05:16:48;;;;;;;6.10;2.42;;;3.60;99.90;;;;;;5112412;28;20119;-88
2022/12/08 05:19:14;;;;;;;8.02;2.45;;;3.60;99.90;;;;;;5112928;28;20552;-88
2022/12/08 05:21:40;;;;;;;5.97;2.35;;;3.70;99.90;;;;;;5113472;28;20140;-88
2022/12/08 05:24:05;;;;;;;7.78;2.75;;;3.60;99.90;;;;;;5112730;28;20122;-89
2022/12/08 05:26:31;;;;;;;7.38;2.72;;;3.60;99.90;;;;;;5112610;28;20042;-89
2022/12/08 05:28:57;;;;;;;6.60;2.78;;;3.60;99.90;;;;;;5096701;28;20040;-89
2022/12/08 05:31:23;;;;;;;7.85;2.38;;;3.60;99.90;;;;;;5096100;28;20047;-88
2022/12/08 05:33:52;;;;;;;6.63;2.38;;;3.60;99.90;;;;;;5094809;28;20040;-89
2022/12/08 05:36:18;;;;;;;6.10;2.25;;;3.60;99.90;;;;;;5094987;28;20063;-89
2022/12/08 05:38:44;;;;;;;6.47;2.60;;;3.60;99.90;;;;;;5112625;28;20069;-89
2022/12/08 05:41:13;;;;;;;6.40;2.00;;;3.60;99.90;;;;;;5113339;28;20039;-89
2022/12/08 05:43:39;;;;;;;5.25;2.05;;;3.60;99.90;;;;;;5102616;28;20043;-89
2022/12/08 05:46:06;;;;;;;6.18;2.33;;;3.60;99.90;;;;;;5076242;28;20040;-89
2022/12/08 05:48:32;;;;;;;8.38;2.58;;;3.60;99.90;;;;;;5093265;28;20047;-88
2022/12/08 05:50:58;;;;;;;6.03;2.40;;;3.60;99.90;;;;;;5100486;28;20040;-89
2022/12/08 05:53:23;;;;;;;7.50;2.45;;;3.60;99.90;;;;;;5091975;28;20036;-89
2022/12/08 05:55:49;;;;;;;9.60;2.67;;;3.60;99.90;;;;;;5100423;28;20431;-89
2022/12/08 05:58:17;;;;;;;9.00;2.75;;;3.60;99.90;;;;;;5094113;28;20039;-89
2022/12/08 06:00:44;;;;;;;7.40;2.97;;;3.60;99.90;;;;;;5110715;28;20043;-88
2022/12/08 06:03:14;;;;;;;7.18;2.78;;;3.60;99.90;;;;;;5080545;28;20496;-89
2022/12/08 06:05:41;;;;;;;7.53;2.63;;;3.60;99.90;;;;;;5073376;28;20115;-89
2022/12/08 06:08:07;;;;;;;6.55;2.58;;;3.60;99.90;;;;;;5107074;28;20054;-88
2022/12/08 06:10:33;;;;;;;6.13;2.28;;;3.50;99.90;;;;;;5110525;28;20652;-89
2022/12/08 06:12:58;;;;;;;7.18;3.20;;;3.60;99.90;;;;;;5094303;28;20040;-89
2022/12/08 06:15:24;;;;;;;7.35;2.97;;;3.60;99.90;;;;;;5094342;28;20071;-88
2022/12/08 06:17:50;;;;;;;7.30;2.70;;;3.50;99.90;;;;;;5098041;28;20044;-89
2022/12/08 06:20:16;;;;;;;6.93;2.70;;;3.60;99.90;;;;;;5083685;28;20038;-88
2022/12/08 06:22:41;;;;;;;6.20;2.53;;;3.50;99.90;;;;;;5094667;28;20094;-88
2022/12/08 06:25:07;;;;;;;6.60;2.88;;;3.50;99.90;;;;;;5111941;28;20071;-88
2022/12/08 06:27:33;;;;;;;6.30;2.30;;;3.50;99.90;;;;;;5094658;28;20042;-86
2022/12/08 06:29:58;;;;;;;6.45;2.60;;;3.50;99.90;;;;;;5111887;28;20397;-86
2022/12/08 06:32:25;;;;;;;7.95;2.97;;;3.60;99.90;;;;;;5082519;28;20632;-86
2022/12/08 06:34:51;;;;;;;10.25;3.65;;;3.60;99.90;;;;;;5091723;28;20054;-86
2022/12/08 06:37:16;;;;;;;8.20;3.28;;;3.60;99.90;;;;;;5098805;28;20039;-86
2022/12/08 06:39:42;;;;;;;7.05;2.92;;;3.60;99.90;;;;;;5094923;28;20492;-87
2022/12/08 06:44:52;;;;;;;6.28;2.60;;;3.60;99.90;;;;;;5098051;28;20048;-87
2022/12/08 06:47:19;;;;;;;6.38;2.67;;;3.60;99.90;;;;;;5074723;28;20036;-87
2022/12/08 06:49:45;;;;;;;5.85;2.55;;;3.60;99.90;;;;;;5096856;28;20039;-86
2022/12/08 06:52:10;;;;;;;8.65;2.78;;;3.60;99.90;;;;;;5111304;28;20061;-87
2022/12/08 06:54:36;;;;;;;7.57;2.85;;;3.60;99.90;;;;;;5094958;28;20050;-86
2022/12/08 06:57:01;;;;;;;8.25;2.80;;;3.60;99.90;;;;;;5093931;28;20049;-86
2022/12/08 06:59:27;;;;;;;6.53;2.83;;;3.60;99.90;;;;;;5111390;28;20512;-86
2022/12/08 07:01:53;;;;;;;9.10;2.78;;;3.60;99.90;;;;;;5094006;28;20038;-87
2022/12/08 07:04:19;;;;;;;10.02;2.67;;;3.60;99.90;;;;;;5085397;28;20070;-87
2022/12/08 07:06:44;;;;;;;7.40;2.85;;;3.60;99.90;;;;;;5091508;28;20071;-86
2022/12/08 07:09:10;;;;;;;6.55;2.33;;;3.50;99.90;;;;;;5092383;28;20028;-86
2022/12/08 07:11:38;;;;;;;7.20;2.13;;;3.60;99.90;;;;;;5090812;28;20032;-86
2022/12/08 07:14:03;;;;;;;6.45;2.33;;;3.50;99.90;;;;;;5099309;28;20043;-86
2022/12/08 07:16:29;;;;;;;5.40;1.80;;;3.50;99.90;;;;;;5090721;28;20044;-86
2022/12/08 07:18:54;;;;;;;5.60;1.80;;;3.50;99.90;;;;;;5107325;28;20047;-86
2022/12/08 07:21:20;;;;;;;7.28;2.28;;;3.50;99.90;;;;;;5109083;28;20463;-89
2022/12/08 07:23:47;;;;;;;5.30;2.05;;;3.50;99.90;;;;;;5093530;28;20130;-88
2022/12/08 07:26:13;;;;;;;5.18;2.03;;;3.40;99.90;;;;;;5109664;28;20023;-89
2022/12/08 07:28:40;;;;;;;5.60;1.80;;;3.40;99.90;;;;;;5111357;28;20453;-89
2022/12/08 07:31:07;;;;;;;5.95;1.88;;;3.40;99.90;;;;;;5093426;28;20046;-89
2022/12/08 07:33:34;;;;;;;4.70;1.73;;;3.40;99.90;;;;;;5110304;28;20096;-89
2022/12/08 07:36:03;;;;;;;7.85;1.67;;;3.40;99.90;;;;;;5093706;28;20043;-89
2022/12/08 07:38:29;;;;;;;6.72;1.67;;;3.40;99.90;;;;;;5110424;28;20055;-88
2022/12/08 07:40:55;;;;;;;7.65;2.00;;;3.40;99.90;;;;;;5110696;28;20050;-88
2022/12/08 07:43:21;;;;;;;3.47;1.45;;;3.40;99.90;;;;;;5109267;28;20052;-88
2022/12/08 07:45:47;;;;;;;4.22;1.63;;;3.40;99.90;;;;;;5110676;28;20032;-86
2022/12/08 07:48:12;;;;;;;5.40;1.80;;;3.40;99.90;;;;;;5092636;28;20042;-89
2022/12/08 07:50:38;;;;;;;4.47;1.77;;;3.40;99.90;;;;;;5089658;28;20039;-89
2022/12/08 07:53:04;;;;;;;5.20;1.85;;;3.40;99.90;;;;;;5109872;28;20061;-89
2022/12/08 07:55:30;;;;;;;5.05;1.83;;;3.40;99.90;;;;;;5092403;28;20075;-87
2022/12/08 07:57:56;;;;;;;5.53;2.30;;;3.50;99.90;;;;;;5092704;28;20449;-87
2022/12/08 08:00:21;;;;;;;5.32;1.73;;;3.50;99.90;;;;;;5092319;28;20043;-87
2022/12/08 08:02:47;;;;;;;4.55;1.50;;;3.50;99.90;;;;;;5091988;28;20047;-87
2022/12/08 08:05:12;;;;;;;5.72;1.60;;;3.50;99.90;;;;;;5100256;28;20116;-87
2022/12/08 08:07:41;;;;;;;4.93;1.77;;;3.40;99.90;;;;;;5100820;28;20061;-87
2022/12/08 08:10:09;;;;;;;3.60;1.27;;;3.50;99.90;;;;;;5110091;28;20431;-87
2022/12/08 08:12:35;;;;;;;3.20;1.25;;;3.40;99.90;;;;;;5092053;28;20048;-87
2022/12/08 08:15:02;;;;;;;3.92;1.13;;;3.40;99.90;;;;;;5103444;28;20032;-87
2022/12/08 08:17:28;;;;;;;5.55;1.60;;;3.40;99.90;;;;;;5088711;28;20044;-87
2022/12/08 08:19:53;;;;;;;3.25;1.20;;;3.40;99.90;;;;;;5097290;28;20059;-88
2022/12/08 08:22:19;;;;;;;6.00;1.73;;;3.40;99.90;;;;;;5108990;28;20075;-88
2022/12/08 08:24:45;;;;;;;3.88;1.10;;;3.40;99.90;;;;;;5092514;28;20031;-88
2022/12/08 08:27:10;;;;;;;5.07;1.65;;;3.40;99.90;;;;;;5099813;28;20070;-88
2022/12/08 08:29:36;;;;;;;4.03;1.20;;;3.40;99.90;;;;;;5092367;28;20036;-88
2022/12/08 08:32:01;;;;;;;5.30;1.33;;;3.30;99.90;;;;;;5103194;28;20209;-88
2022/12/08 08:34:27;;;;;;;4.57;1.20;;;3.40;99.90;;;;;;5106291;28;20035;-88
2022/12/08 08:36:52;;;;;;;2.70;1.02;;;3.30;99.90;;;;;;5109342;28;20043;-87
2022/12/08 08:39:18;;;;;;;5.50;1.33;;;3.30;99.90;;;;;;5099546;28;20136;-87
2022/12/08 08:41:43;;;;;;;2.35;0.93;;;3.30;99.90;;;;;;5109398;28;20124;-88
2022/12/08 08:44:11;;;;;;;3.58;1.17;;;3.30;99.90;;;;;;5107753;28;20069;-87
2022/12/08 08:46:37;;;;;;;4.13;1.20;;;3.20;99.90;;;;;;5092465;28;20040;-87
2022/12/08 08:49:02;;;;;;;3.28;1.10;;;3.30;99.90;;;;;;5109707;28;20386;-87
2022/12/08 08:51:28;;;;;;;3.70;1.00;;;3.20;99.90;;;;;;5088963;28;20032;-87
2022/12/08 08:53:53;;;;;;;1.88;0.98;;;3.30;99.90;;;;;;5088561;28;20459;-88
2022/12/08 08:56:19;;;;;;;1.92;0.90;;;3.30;99.90;;;;;;5085711;28;20031;-88
2022/12/08 08:58:47;;;;;;;4.28;1.42;;;3.30;99.90;;;;;;5090932;28;20538;-88
2022/12/08 09:01:19;;;;;;;2.80;0.80;;;3.30;99.90;;;;;;5091466;28;20039;-87
2022/12/08 09:03:45;;;;;;;3.08;0.98;;;3.30;99.90;;;;;;5089094;28;20489;-88
2022/12/08 09:06:12;;;;;;;4.93;1.05;;;3.30;99.90;;;;;;5107577;28;20036;-88
2022/12/08 09:08:38;;;;;;;2.50;0.88;;;3.30;99.90;;;;;;5108638;28;20032;-88
2022/12/08 09:11:03;;;;;;;3.60;0.85;;;3.30;99.90;;;;;;5109280;28;20089;-88
2022/12/08 09:13:29;;;;;;;2.55;1.00;;;3.30;99.90;;;;;;5098691;28;20047;-87
2022/12/08 09:15:55;;;;;;;3.35;0.77;;;3.30;99.90;;;;;;5108887;28;20040;-88
2022/12/08 09:18:20;;;;;;;2.85;0.93;;;3.30;99.90;;;;;;5107985;28;20527;-87
2022/12/08 09:20:46;;;;;;;1.45;0.63;;;3.30;99.90;;;;;;5092260;28;20069;-87
2022/12/08 09:23:11;;;;;;;1.83;0.75;;;3.30;99.90;;;;;;5108291;28;20035;-87
2022/12/08 09:25:37;;;;;;;1.63;0.70;;;3.30;99.90;;;;;;5108785;28;20070;-88
2022/12/08 09:28:02;;;;;;;1.85;0.85;;;3.30;99.90;;;;;;5071512;28;20043;-87
2022/12/08 09:30:28;;;;;;;3.83;0.82;;;3.40;99.90;;;;;;5075394;28;20039;-87
2022/12/08 09:32:54;;;;;;;5.22;1.00;;;3.40;99.90;;;;;;5090986;28;20556;-88
2022/12/08 09:35:19;;;;;;;4.03;0.75;;;3.40;99.90;;;;;;5091817;28;20141;-87
2022/12/08 09:37:45;;;;;;;3.63;0.77;;;3.40;99.90;;;;;;5091197;28;20042;-88
2022/12/08 09:40:16;;;;;;;2.17;0.88;;;3.40;99.90;;;;;;5091617;28;20036;-87
2022/12/08 09:42:51;;;;;;;4.85;0.95;;;3.40;99.90;;;;;;5108496;28;20036;-87
2022/12/08 09:45:18;;;;;;;2.70;1.15;;;3.40;99.90;;;;;;5092408;28;20492;-87
2022/12/08 09:47:57;;;;;;;4.15;0.90;;;3.40;99.90;;;;;;5091530;28;20556;-87
2022/12/08 09:50:31;;;;;;;1.77;0.70;;;3.40;99.90;;;;;;5094600;28;20046;-88
2022/12/08 09:53:02;;;;;;;2.88;0.90;;;3.40;99.90;;;;;;5094698;28;20123;-87
2022/12/08 09:55:49;;;;;;;3.75;1.02;;;3.50;99.90;;;;;;5095024;28;20400;-87
2022/12/08 09:58:18;;;;;;;4.15;1.10;;;3.50;99.90;;;;;;5095013;28;20047;-88
2022/12/08 10:00:44;;;;;;;4.15;0.93;;;3.50;99.90;;;;;;5095664;28;20044;-88
2022/12/08 10:03:11;;;;;;;1.70;0.80;;;3.50;99.90;;;;;;5110865;28;20093;-87
2022/12/08 10:05:45;;;;;;;1.75;0.80;;;3.60;99.90;;;;;;5112051;28;20067;-87
2022/12/08 10:08:14;;;;;;;3.42;0.90;;;3.60;99.90;;;;;;5094812;28;20471;-87
2022/12/08 10:10:47;;;;;;;2.95;1.10;;;3.60;99.90;;;;;;5111910;28;20039;-88
2022/12/08 10:13:41;;;;;;;5.55;1.10;;;3.70;99.90;;;;;;5112012;28;20532;-87
2022/12/08 10:16:26;;;;;;;3.30;1.05;;;3.70;99.90;;;;;;5111832;28;20047;-88
2022/12/08 10:19:01;;;;;;;3.08;1.08;;;3.80;99.90;;;;;;5095005;28;20070;-88
2022/12/08 10:21:28;;;;;;;5.35;1.52;;;3.80;99.90;;;;;;5111481;28;20118;-87
2022/12/08 10:24:39;;;;;;;2.38;1.20;;;3.80;99.90;;;;;;5111176;28;20081;-87
2022/12/08 10:27:10;;;;;;;3.72;1.05;;;3.80;99.90;;;;;;5093909;28;20085;-87
2022/12/08 10:29:36;;;;;;;3.08;1.20;;;3.80;99.90;;;;;;5095033;28;20071;-87
2022/12/08 10:32:15;;;;;;;4.18;1.42;;;3.90;99.90;;;;;;5094264;28;20329;-87
2022/12/08 10:35:03;;;;;;;4.00;1.42;;;3.90;99.90;;;;;;5110923;28;20073;-88
2022/12/08 10:37:29;;;;;;;4.65;1.50;;;3.90;99.90;;;;;;5094599;28;20627;-88
2022/12/08 10:40:31;;;;;;;4.88;1.50;;;3.90;99.90;;;;;;5110750;28;20039;-88
2022/12/08 10:42:58;;;;;;;5.10;1.83;;;3.90;99.90;;;;;;5089235;28;20120;-88
2022/12/08 10:45:31;;;;;;;9.35;2.20;;;3.90;99.90;;;;;;5099472;28;20047;-86
2022/12/08 10:48:11;;;;;;;4.68;1.95;;;3.90;99.90;;;;;;5089128;28;20040;-87
2022/12/08 10:50:55;;;;;;;6.30;2.05;;;3.80;99.90;;;;;;5097219;28;20042;-88
2022/12/08 10:53:44;;;;;;;5.32;2.05;;;3.80;99.90;;;;;;5095352;28;20012;-87
2022/12/08 10:56:16;;;;;;;7.30;2.38;;;3.80;99.90;;;;;;5110387;27;20040;-88
2022/12/08 10:58:44;;;;;;;6.38;2.38;;;3.80;99.90;;;;;;5119411;28;20032;-88
2022/12/08 11:01:32;;;;;;;6.53;2.75;;;3.80;99.90;;;;;;5096272;28;20101;-89
2022/12/08 11:04:04;;;;;;;7.28;2.72;;;3.80;99.90;;;;;;5111930;28;20044;-88
2022/12/08 11:06:36;;;;;;;8.75;3.60;;;3.80;99.90;;;;;;5093003;28;20122;-88
2022/12/08 11:09:06;;;;;;;10.10;3.42;;;3.80;99.90;;;;;;5106341;28;20520;-88
2022/12/08 11:11:50;;;;;;;8.63;3.08;;;3.90;99.90;;;;;;5095019;28;20028;-88
2022/12/08 11:14:30;;;;;;;6.75;2.47;;;3.90;99.90;;;;;;5093003;28;20040;-88
2022/12/08 11:17:04;;;;;;;6.45;2.45;;;3.90;99.90;;;;;;5093232;28;20042;-88
2022/12/08 11:19:29;;;;;;;7.35;2.38;;;3.90;99.90;;;;;;5092139;28;20404;-88
2022/12/08 11:21:55;;;;;;;7.85;2.85;;;3.90;99.90;;;;;;5110785;28;20512;-88
2022/12/08 11:24:27;;;;;;;8.57;2.80;;;4.00;99.90;;;;;;5109308;28;20041;-88
2022/12/08 11:27:01;;;;;;;7.65;3.13;;;4.00;99.90;;;;;;5098713;28;20032;-87
2022/12/08 11:29:29;;;;;;;6.95;2.72;;;4.00;99.90;;;;;;5089586;28;20052;-87
2022/12/08 11:32:06;;;;;;;7.80;3.20;;;4.00;99.90;;;;;;5073011;28;20162;-89
2022/12/08 11:34:47;;;;;;;8.35;3.53;;;4.10;99.90;;;;;;5072717;28;20117;-88
2022/12/08 11:37:26;;;;;;;8.02;3.05;;;4.10;99.90;;;;;;5099927;28;20114;-88
2022/12/08 11:39:54;;;;;;;8.88;2.97;;;4.10;99.90;;;;;;5072786;28;20036;-88
2022/12/08 11:42:27;;;;;;;9.48;3.38;;;4.10;99.90;;;;;;5105105;28;20085;-88
2022/12/08 11:45:10;;;;;;;7.60;3.33;;;4.20;99.90;;;;;;5088434;28;20039;-88
2022/12/08 11:47:42;;;;;;;9.60;3.50;;;4.10;99.90;;;;;;5103381;28;20110;-87
2022/12/08 11:50:20;;;;;;;9.82;3.05;;;4.10;99.90;;;;;;5089907;28;20044;-88
2022/12/08 11:52:49;;;;;;;9.50;3.25;;;4.10;99.90;;;;;;5075713;28;20042;-88
2022/12/08 11:55:30;;;;;;;8.32;3.10;;;4.10;99.90;;;;;;5089594;28;20043;-88
2022/12/08 11:58:12;;;;;;;8.65;3.05;;;4.10;99.90;;;;;;5092484;28;20040;-88
2022/12/08 12:00:38;;;;;;;8.48;2.80;;;4.10;99.90;;;;;;5092346;28;20036;-88
2022/12/08 12:03:16;;;;;;;10.15;3.53;;;4.00;99.90;;;;;;5091831;28;20385;-88
2022/12/08 12:05:56;;;;;;;8.23;3.20;;;4.00;99.90;;;;;;5108231;28;20032;-88
2022/12/08 12:08:30;;;;;;;7.82;3.50;;;4.00;99.90;;;;;;5092395;28;20504;-88
2022/12/08 12:11:08;;;;;;;8.18;3.33;;;4.00;99.90;;;;;;5091463;28;20043;-88
2022/12/08 12:14:04;;;;;;;8.55;3.13;;;4.00;99.90;;;;;;5080495;28;20090;-88
2022/12/08 12:17:01;;;;;;;7.30;3.05;;;4.00;99.90;;;;;;5071283;28;20110;-88
2022/12/08 12:19:29;;;;;;;7.78;2.92;;;4.00;99.90;;;;;;5075462;28;20414;-88
2022/12/08 12:21:56;;;;;;;9.82;3.60;;;4.10;99.90;;;;;;5094858;28;20031;-88
2022/12/08 12:24:26;;;;;;;7.82;3.50;;;4.10;99.90;;;;;;5086944;28;20133;-88
2022/12/08 12:27:06;;;;;;;9.43;3.90;;;4.60;99.90;;;;;;5088363;28;20419;-88
2022/12/08 12:29:36;;;;;;;9.10;3.90;;;5.70;99.90;;;;;;5097466;28;20043;-89
2022/12/08 12:32:04;;;;;;;8.50;3.85;;;6.70;99.90;;;;;;5092568;28;20505;-88
2022/12/08 12:34:41;;;;;;;9.25;3.72;;;8.10;99.90;;;;;;5092614;28;20092;-88
2022/12/08 12:37:10;;;;;;;7.80;3.53;;;9.60;99.90;;;;;;5091251;28;20047;-88
2022/12/08 12:39:51;;;;;;;6.95;3.00;;;10.90;99.90;;;;;;5091852;28;20088;-88
2022/12/08 12:42:55;;;;;;;8.32;3.55;;;11.60;99.90;;;;;;5091954;28;20466;-88
2022/12/08 12:45:21;;;;;;;8.07;3.85;;;11.60;99.90;;;;;;5011005;28;20037;-88
2022/12/08 12:47:50;;;;;;;9.07;3.83;;;11.90;99.90;;;;;;5089142;28;20080;-89
2022/12/08 12:50:31;;;;;;;8.02;3.47;;;12.50;99.90;;;;;;5086345;28;20027;-88
2022/12/08 12:53:17;;;;;;;7.40;3.47;;;13.30;99.90;;;;;;5097580;28;20142;-89
2022/12/08 12:55:45;;;;;;;7.50;3.45;;;14.10;99.90;;;;;;5098558;28;20123;-87
2022/12/08 12:58:28;;;;;;;7.00;3.35;;;15.00;91.30;;;;;;5081373;28;20581;-88
2022/12/08 13:01:09;;;;;;;7.22;3.45;;;15.80;81.70;;;;;;5085771;28;20111;-88
2022/12/08 13:03:50;;;;;;;6.43;3.00;;;16.30;79.60;;;;;;5062734;28;20068;-88
2022/12/08 13:06:31;;;;;;;6.72;3.10;;;16.70;76.40;;;;;;5096534;28;20028;-88
2022/12/08 13:08:58;;;;;;;6.93;3.28;;;16.90;72.60;;;;;;5084881;28;20058;-88
2022/12/08 13:11:24;;;;;;;7.47;3.00;;;16.90;71.50;;;;;;5061152;28;20132;-88
2022/12/08 13:13:58;;;;;;;6.15;2.92;;;16.70;69.80;;;;;;5072374;28;20115;-88
2022/12/08 13:16:26;;;;;;;7.25;2.90;;;15.90;68.40;;;;;;5088486;28;20036;-88
2022/12/08 13:18:58;;;;;;;6.60;3.13;;;14.70;70.40;;;;;;5107407;28;20116;-88